sensor_id;sensor_type;location;lat;lon;timestamp;temperature;humidity
18794;DHT22;29610;49.022;12.114;2023-04-25T00:01:48;7.40;99.00
18794;DHT22;29610;49.022;12.114;2023-04-25T00:04:38;7.30;99.10
18794;DHT22;29610;49.022;12.114;2023-04-25T00:07:29;7.30;99.20
18794;DHT22;29610;49.022;12.114;2023-04-25T00:10:18;7.30;99.30
18794;DHT22;29610;49.022;12.114;2023-04-25T00:13:08;7.30;99.30
18794;DHT22;29610;49.022;12.114;2023-04-25T00:15:58;7.30;99.20
18794;DHT22;29610;49.022;12.114;2023-04-25T00:18:47;7.20;99.20
18794;DHT22;29610;49.022;12.114;2023-04-25T00:21:38;7.10;99.50
18794;DHT22;29610;49.022;12.114;2023-04-25T00:24:30;7.00;99.60
18794;DHT22;29610;49.022;12.114;2023-04-25T00:27:19;7.00;99.90
18794;DHT22;29610;49.022;12.114;2023-04-25T00:30:08;6.90;99.90
18794;DHT22;29610;49.022;12.114;2023-04-25T00:32:58;6.90;99.90
18794;DHT22;29610;49.022;12.114;2023-04-25T00:35:47;6.90;99.90
18794;DHT22;29610;49.022;12.114;2023-04-25T00:38:36;6.90;99.90
18794;DHT22;29610;49.022;12.114;2023-04-25T00:41:27;6.90;99.90
18794;DHT22;29610;49.022;12.114;2023-04-25T00:44:17;6.80;99.90
18794;DHT22;29610;49.022;12.114;2023-04-25T00:47:07;6.90;99.90
18794;DHT22;29610;49.022;12.114;2023-04-25T00:49:56;6.90;99.90
18794;DHT22;29610;49.022;12.114;2023-04-25T00:52:45;6.90;99.90
18794;DHT22;29610;49.022;12.114;2023-04-25T00:55:34;6.90;99.90
18794;DHT22;29610;49.022;12.114;2023-04-25T00:58:25;6.90;99.90
18794;DHT22;29610;49.022;12.114;2023-04-25T01:01:14;6.90;99.90
18794;DHT22;29610;49.022;12.114;2023-04-25T01:04:04;6.90;99.90
18794;DHT22;29610;49.022;12.114;2023-04-25T01:06:53;6.80;99.90
18794;DHT22;29610;49.022;12.114;2023-04-25T01:09:43;6.80;99.90
18794;DHT22;29610;49.022;12.114;2023-04-25T01:12:31;6.70;99.90
18794;DHT22;29610;49.022;12.114;2023-04-25T01:15:22;6.70;99.90
18794;DHT22;29610;49.022;12.114;2023-04-25T01:18:13;6.60;99.90
18794;DHT22;29610;49.022;12.114;2023-04-25T01:21:08;6.60;99.90
18794;DHT22;29610;49.022;12.114;2023-04-25T01:23:59;6.60;99.90
18794;DHT22;29610;49.022;12.114;2023-04-25T01:26:48;6.70;99.90
18794;DHT22;29610;49.022;12.114;2023-04-25T01:29:43;6.80;99.90
18794;DHT22;29610;49.022;12.114;2023-04-25T01:32:33;6.90;99.90
18794;DHT22;29610;49.022;12.114;2023-04-25T01:35:26;6.90;99.90
18794;DHT22;29610;49.022;12.114;2023-04-25T01:38:16;6.90;99.90
18794;DHT22;29610;49.022;12.114;2023-04-25T01:41:05;7.00;99.90
18794;DHT22;29610;49.022;12.114;2023-04-25T01:43:56;7.00;99.90
18794;DHT22;29610;49.022;12.114;2023-04-25T01:46:45;6.90;99.90
18794;DHT22;29610;49.022;12.114;2023-04-25T01:49:34;7.00;99.90
18794;DHT22;29610;49.022;12.114;2023-04-25T01:52:22;7.00;99.90
18794;DHT22;29610;49.022;12.114;2023-04-25T01:55:13;7.10;99.90
18794;DHT22;29610;49.022;12.114;2023-04-25T01:58:11;7.20;99.90
18794;DHT22;29610;49.022;12.114;2023-04-25T02:01:20;7.20;99.90
18794;DHT22;29610;49.022;12.114;2023-04-25T02:04:26;7.30;99.90
18794;DHT22;29610;49.022;12.114;2023-04-25T02:07:15;7.40;99.90
18794;DHT22;29610;49.022;12.114;2023-04-25T02:10:12;7.40;99.90
18794;DHT22;29610;49.022;12.114;2023-04-25T02:13:15;7.40;99.90
18794;DHT22;29610;49.022;12.114;2023-04-25T02:16:19;7.40;99.90
18794;DHT22;29610;49.022;12.114;2023-04-25T02:19:08;7.40;99.90
18794;DHT22;29610;49.022;12.114;2023-04-25T02:21:57;7.40;99.90
18794;DHT22;29610;49.022;12.114;2023-04-25T02:24:46;7.40;99.80
18794;DHT22;29610;49.022;12.114;2023-04-25T02:27:37;7.40;99.50
18794;DHT22;29610;49.022;12.114;2023-04-25T02:30:27;7.50;99.40
18794;DHT22;29610;49.022;12.114;2023-04-25T02:33:16;7.40;99.30
18794;DHT22;29610;49.022;12.114;2023-04-25T02:36:06;7.40;99.20
18794;DHT22;29610;49.022;12.114;2023-04-25T02:38:55;7.40;99.10
18794;DHT22;29610;49.022;12.114;2023-04-25T02:41:44;7.40;99.00
18794;DHT22;29610;49.022;12.114;2023-04-25T02:44:34;7.40;98.80
18794;DHT22;29610;49.022;12.114;2023-04-25T02:47:25;7.40;99.10
18794;DHT22;29610;49.022;12.114;2023-04-25T02:50:14;7.30;98.90
18794;DHT22;29610;49.022;12.114;2023-04-25T02:53:03;7.20;98.90
18794;DHT22;29610;49.022;12.114;2023-04-25T02:55:57;7.10;99.00
18794;DHT22;29610;49.022;12.114;2023-04-25T02:58:46;7.10;99.30
18794;DHT22;29610;49.022;12.114;2023-04-25T03:01:37;6.90;99.10
18794;DHT22;29610;49.022;12.114;2023-04-25T03:04:26;6.80;99.50
18794;DHT22;29610;49.022;12.114;2023-04-25T03:07:15;6.80;99.40
18794;DHT22;29610;49.022;12.114;2023-04-25T03:10:05;6.70;99.40
18794;DHT22;29610;49.022;12.114;2023-04-25T03:12:55;6.80;99.60
18794;DHT22;29610;49.022;12.114;2023-04-25T03:15:45;6.70;99.90
18794;DHT22;29610;49.022;12.114;2023-04-25T03:18:35;6.70;99.70
18794;DHT22;29610;49.022;12.114;2023-04-25T03:21:24;6.80;99.90
18794;DHT22;29610;49.022;12.114;2023-04-25T03:24:13;6.80;99.60
18794;DHT22;29610;49.022;12.114;2023-04-25T03:27:02;6.80;99.80
18794;DHT22;29610;49.022;12.114;2023-04-25T03:29:52;6.70;99.80
18794;DHT22;29610;49.022;12.114;2023-04-25T03:32:41;7.10;99.90
18794;DHT22;29610;49.022;12.114;2023-04-25T03:35:36;6.60;99.90
18794;DHT22;29610;49.022;12.114;2023-04-25T03:38:26;6.60;99.90
18794;DHT22;29610;49.022;12.114;2023-04-25T03:41:15;6.60;99.90
18794;DHT22;29610;49.022;12.114;2023-04-25T03:44:12;6.70;99.90
18794;DHT22;29610;49.022;12.114;2023-04-25T03:47:01;6.60;99.90
18794;DHT22;29610;49.022;12.114;2023-04-25T03:49:51;6.70;99.90
18794;DHT22;29610;49.022;12.114;2023-04-25T03:52:44;6.70;99.90
18794;DHT22;29610;49.022;12.114;2023-04-25T03:55:33;6.80;99.90
18794;DHT22;29610;49.022;12.114;2023-04-25T03:58:23;6.90;99.90
18794;DHT22;29610;49.022;12.114;2023-04-25T04:01:12;6.90;99.90
18794;DHT22;29610;49.022;12.114;2023-04-25T04:04:01;7.00;99.90
18794;DHT22;29610;49.022;12.114;2023-04-25T04:06:51;7.10;99.70
18794;DHT22;29610;49.022;12.114;2023-04-25T04:09:50;7.10;99.60
18794;DHT22;29610;49.022;12.114;2023-04-25T04:12:45;7.20;99.70
18794;DHT22;29610;49.022;12.114;2023-04-25T04:15:34;7.20;99.40
18794;DHT22;29610;49.022;12.114;2023-04-25T04:18:23;7.20;99.20
18794;DHT22;29610;49.022;12.114;2023-04-25T04:21:15;7.20;99.30
18794;DHT22;29610;49.022;12.114;2023-04-25T04:24:04;7.20;99.30
18794;DHT22;29610;49.022;12.114;2023-04-25T04:27:07;7.20;99.40
18794;DHT22;29610;49.022;12.114;2023-04-25T04:30:12;7.30;99.40
18794;DHT22;29610;49.022;12.114;2023-04-25T04:33:17;7.30;99.30
18794;DHT22;29610;49.022;12.114;2023-04-25T04:36:11;7.40;99.50
18794;DHT22;29610;49.022;12.114;2023-04-25T04:39:00;7.40;99.40
18794;DHT22;29610;49.022;12.114;2023-04-25T04:42:16;7.50;99.10
18794;DHT22;29610;49.022;12.114;2023-04-25T04:45:25;7.60;99.20
18794;DHT22;29610;49.022;12.114;2023-04-25T04:48:42;7.70;99.00
18794;DHT22;29610;49.022;12.114;2023-04-25T04:52:02;7.80;98.70
18794;DHT22;29610;49.022;12.114;2023-04-25T04:55:00;7.80;98.60
18794;DHT22;29610;49.022;12.114;2023-04-25T04:58:11;7.90;98.50
18794;DHT22;29610;49.022;12.114;2023-04-25T05:01:11;7.90;98.40
18794;DHT22;29610;49.022;12.114;2023-04-25T05:04:15;7.90;98.20
18794;DHT22;29610;49.022;12.114;2023-04-25T05:07:23;7.90;97.80
18794;DHT22;29610;49.022;12.114;2023-04-25T05:10:25;7.80;97.80
18794;DHT22;29610;49.022;12.114;2023-04-25T05:13:18;7.70;97.80
18794;DHT22;29610;49.022;12.114;2023-04-25T05:16:20;7.70;97.90
18794;DHT22;29610;49.022;12.114;2023-04-25T05:19:18;7.60;98.00
18794;DHT22;29610;49.022;12.114;2023-04-25T05:22:27;7.50;98.30
18794;DHT22;29610;49.022;12.114;2023-04-25T05:25:36;7.60;98.40
18794;DHT22;29610;49.022;12.114;2023-04-25T05:28:32;7.60;97.90
18794;DHT22;29610;49.022;12.114;2023-04-25T05:31:42;7.50;97.70
18794;DHT22;29610;49.022;12.114;2023-04-25T05:34:35;7.50;97.80
18794;DHT22;29610;49.022;12.114;2023-04-25T05:37:27;7.60;98.00
18794;DHT22;29610;49.022;12.114;2023-04-25T05:40:25;7.80;98.00
18794;DHT22;29610;49.022;12.114;2023-04-25T05:43:32;8.00;98.20
18794;DHT22;29610;49.022;12.114;2023-04-25T05:46:42;8.30;97.90
18794;DHT22;29610;49.022;12.114;2023-04-25T05:49:55;8.60;97.20
18794;DHT22;29610;49.022;12.114;2023-04-25T05:53:12;8.90;96.50
18794;DHT22;29610;49.022;12.114;2023-04-25T05:56:03;9.30;96.20
18794;DHT22;29610;49.022;12.114;2023-04-25T05:58:57;9.60;95.30
18794;DHT22;29610;49.022;12.114;2023-04-25T06:01:47;9.80;94.70
18794;DHT22;29610;49.022;12.114;2023-04-25T06:04:36;10.00;93.50
18794;DHT22;29610;49.022;12.114;2023-04-25T06:07:26;10.20;93.70
18794;DHT22;29610;49.022;12.114;2023-04-25T06:10:15;10.40;93.20
18794;DHT22;29610;49.022;12.114;2023-04-25T06:13:05;10.40;92.60
18794;DHT22;29610;49.022;12.114;2023-04-25T06:15:57;10.80;92.60
18794;DHT22;29610;49.022;12.114;2023-04-25T06:18:46;11.30;92.10
18794;DHT22;29610;49.022;12.114;2023-04-25T06:21:36;11.50;90.50
18794;DHT22;29610;49.022;12.114;2023-04-25T06:24:26;11.80;90.50
18794;DHT22;29610;49.022;12.114;2023-04-25T06:27:16;12.00;89.40
18794;DHT22;29610;49.022;12.114;2023-04-25T06:30:07;11.90;90.40
18794;DHT22;29610;49.022;12.114;2023-04-25T06:32:58;11.90;89.80
18794;DHT22;29610;49.022;12.114;2023-04-25T06:35:49;12.00;88.60
18794;DHT22;29610;49.022;12.114;2023-04-25T06:38:46;12.00;88.70
18794;DHT22;29610;49.022;12.114;2023-04-25T06:41:35;12.10;88.70
18794;DHT22;29610;49.022;12.114;2023-04-25T06:44:27;12.50;86.00
18794;DHT22;29610;49.022;12.114;2023-04-25T06:47:17;12.40;85.00
18794;DHT22;29610;49.022;12.114;2023-04-25T06:50:12;12.00;86.80
18794;DHT22;29610;49.022;12.114;2023-04-25T06:53:02;11.80;88.40
18794;DHT22;29610;49.022;12.114;2023-04-25T06:55:51;11.80;88.10
18794;DHT22;29610;49.022;12.114;2023-04-25T06:58:42;12.10;89.40
18794;DHT22;29610;49.022;12.114;2023-04-25T07:01:42;12.20;86.10
18794;DHT22;29610;49.022;12.114;2023-04-25T07:04:36;12.90;87.10
18794;DHT22;29610;49.022;12.114;2023-04-25T07:07:27;12.90;83.90
18794;DHT22;29610;49.022;12.114;2023-04-25T07:10:18;12.60;83.90
18794;DHT22;29610;49.022;12.114;2023-04-25T07:13:08;12.40;83.70
18794;DHT22;29610;49.022;12.114;2023-04-25T07:15:59;12.10;83.70
18794;DHT22;29610;49.022;12.114;2023-04-25T07:18:50;12.30;84.50
18794;DHT22;29610;49.022;12.114;2023-04-25T07:21:40;12.10;82.50
18794;DHT22;29610;49.022;12.114;2023-04-25T07:24:32;12.60;85.80
18794;DHT22;29610;49.022;12.114;2023-04-25T07:27:21;13.50;81.00
18794;DHT22;29610;49.022;12.114;2023-04-25T07:30:22;14.10;79.30
18794;DHT22;29610;49.022;12.114;2023-04-25T07:33:12;14.40;78.40
18794;DHT22;29610;49.022;12.114;2023-04-25T07:36:01;13.90;77.20
18794;DHT22;29610;49.022;12.114;2023-04-25T07:38:51;13.40;77.80
18794;DHT22;29610;49.022;12.114;2023-04-25T07:41:41;13.10;79.40
18794;DHT22;29610;49.022;12.114;2023-04-25T07:44:39;12.60;80.90
18794;DHT22;29610;49.022;12.114;2023-04-25T07:47:31;12.10;82.20
18794;DHT22;29610;49.022;12.114;2023-04-25T07:50:21;12.00;81.90
18794;DHT22;29610;49.022;12.114;2023-04-25T07:53:11;11.90;82.70
18794;DHT22;29610;49.022;12.114;2023-04-25T07:56:07;11.70;83.50
18794;DHT22;29610;49.022;12.114;2023-04-25T07:59:02;11.90;83.40
18794;DHT22;29610;49.022;12.114;2023-04-25T08:01:52;12.30;83.30
18794;DHT22;29610;49.022;12.114;2023-04-25T08:04:42;12.50;81.10
18794;DHT22;29610;49.022;12.114;2023-04-25T08:07:37;12.50;80.30
18794;DHT22;29610;49.022;12.114;2023-04-25T08:10:27;12.70;81.10
18794;DHT22;29610;49.022;12.114;2023-04-25T08:13:18;13.10;80.80
18794;DHT22;29610;49.022;12.114;2023-04-25T08:16:09;13.10;78.00
18794;DHT22;29610;49.022;12.114;2023-04-25T08:19:00;12.90;76.50
18794;DHT22;29610;49.022;12.114;2023-04-25T08:21:49;13.10;76.60
18794;DHT22;29610;49.022;12.114;2023-04-25T08:24:45;13.10;76.60
18794;DHT22;29610;49.022;12.114;2023-04-25T08:27:35;13.40;74.90
18794;DHT22;29610;49.022;12.114;2023-04-25T08:30:25;13.50;72.60
18794;DHT22;29610;49.022;12.114;2023-04-25T08:33:16;14.10;74.70
18794;DHT22;29610;49.022;12.114;2023-04-25T08:36:06;14.80;72.00
18794;DHT22;29610;49.022;12.114;2023-04-25T08:38:56;15.50;70.70
18794;DHT22;29610;49.022;12.114;2023-04-25T08:41:45;15.50;68.50
18794;DHT22;29610;49.022;12.114;2023-04-25T08:44:34;15.00;70.10
18794;DHT22;29610;49.022;12.114;2023-04-25T08:47:26;14.60;71.20
18794;DHT22;29610;49.022;12.114;2023-04-25T08:50:19;14.00;71.30
18794;DHT22;29610;49.022;12.114;2023-04-25T08:53:12;13.60;73.60
18794;DHT22;29610;49.022;12.114;2023-04-25T08:56:07;13.20;73.10
18794;DHT22;29610;49.022;12.114;2023-04-25T08:58:56;12.60;76.20
18794;DHT22;29610;49.022;12.114;2023-04-25T09:01:46;12.60;76.20
18794;DHT22;29610;49.022;12.114;2023-04-25T09:04:42;12.90;75.80
18794;DHT22;29610;49.022;12.114;2023-04-25T09:07:35;12.90;75.50
18794;DHT22;29610;49.022;12.114;2023-04-25T09:10:27;12.80;75.60
18794;DHT22;29610;49.022;12.114;2023-04-25T09:13:25;12.90;75.10
18794;DHT22;29610;49.022;12.114;2023-04-25T09:16:35;12.70;75.80
18794;DHT22;29610;49.022;12.114;2023-04-25T09:20:06;12.60;77.00
18794;DHT22;29610;49.022;12.114;2023-04-25T09:23:05;12.80;76.80
18794;DHT22;29610;49.022;12.114;2023-04-25T09:25:57;12.80;77.20
18794;DHT22;29610;49.022;12.114;2023-04-25T09:28:47;12.60;77.40
18794;DHT22;29610;49.022;12.114;2023-04-25T09:31:40;12.00;82.00
18794;DHT22;29610;49.022;12.114;2023-04-25T09:34:39;11.70;83.70
18794;DHT22;29610;49.022;12.114;2023-04-25T09:37:30;11.40;84.80
18794;DHT22;29610;49.022;12.114;2023-04-25T09:40:48;11.60;83.90
18794;DHT22;29610;49.022;12.114;2023-04-25T09:43:49;12.50;86.30
18794;DHT22;29610;49.022;12.114;2023-04-25T09:46:40;13.70;80.10
18794;DHT22;29610;49.022;12.114;2023-04-25T09:49:40;14.50;77.50
18794;DHT22;29610;49.022;12.114;2023-04-25T09:52:32;14.00;76.20
18794;DHT22;29610;49.022;12.114;2023-04-25T09:55:34;12.70;78.60
18794;DHT22;29610;49.022;12.114;2023-04-25T09:58:25;11.70;82.40
18794;DHT22;29610;49.022;12.114;2023-04-25T10:01:21;11.10;83.40
18794;DHT22;29610;49.022;12.114;2023-04-25T10:04:28;10.90;83.90
18794;DHT22;29610;49.022;12.114;2023-04-25T10:07:28;11.00;83.50
18794;DHT22;29610;49.022;12.114;2023-04-25T10:10:20;11.90;83.10
18794;DHT22;29610;49.022;12.114;2023-04-25T10:13:16;12.50;81.20
18794;DHT22;29610;49.022;12.114;2023-04-25T10:16:06;12.30;79.80
18794;DHT22;29610;49.022;12.114;2023-04-25T10:18:55;11.80;79.80
18794;DHT22;29610;49.022;12.114;2023-04-25T10:21:50;11.70;82.00
18794;DHT22;29610;49.022;12.114;2023-04-25T10:24:41;11.80;82.80
18794;DHT22;29610;49.022;12.114;2023-04-25T10:27:31;11.60;83.10
18794;DHT22;29610;49.022;12.114;2023-04-25T10:30:20;11.30;84.80
18794;DHT22;29610;49.022;12.114;2023-04-25T10:33:18;10.50;87.20
18794;DHT22;29610;49.022;12.114;2023-04-25T10:36:11;10.30;90.10
18794;DHT22;29610;49.022;12.114;2023-04-25T10:39:04;10.30;90.50
18794;DHT22;29610;49.022;12.114;2023-04-25T10:41:56;10.30;90.60
18794;DHT22;29610;49.022;12.114;2023-04-25T10:45:01;10.40;90.20
18794;DHT22;29610;49.022;12.114;2023-04-25T10:47:54;10.20;90.80
18794;DHT22;29610;49.022;12.114;2023-04-25T10:50:45;10.40;90.40
18794;DHT22;29610;49.022;12.114;2023-04-25T10:53:34;11.10;90.00
18794;DHT22;29610;49.022;12.114;2023-04-25T10:56:25;12.40;87.40
18794;DHT22;29610;49.022;12.114;2023-04-25T10:59:16;14.00;80.70
18794;DHT22;29610;49.022;12.114;2023-04-25T11:02:11;13.80;79.50
18794;DHT22;29610;49.022;12.114;2023-04-25T11:05:03;13.40;80.30
18794;DHT22;29610;49.022;12.114;2023-04-25T11:07:56;13.70;77.50
18794;DHT22;29610;49.022;12.114;2023-04-25T11:10:55;13.90;78.00
18794;DHT22;29610;49.022;12.114;2023-04-25T11:13:48;13.70;75.00
18794;DHT22;29610;49.022;12.114;2023-04-25T11:16:38;13.30;73.80
18794;DHT22;29610;49.022;12.114;2023-04-25T11:19:28;13.10;73.50
18794;DHT22;29610;49.022;12.114;2023-04-25T11:22:21;13.10;73.00
18794;DHT22;29610;49.022;12.114;2023-04-25T11:25:14;13.40;72.10
18794;DHT22;29610;49.022;12.114;2023-04-25T11:28:04;13.70;71.00
18794;DHT22;29610;49.022;12.114;2023-04-25T11:30:53;13.90;71.10
18794;DHT22;29610;49.022;12.114;2023-04-25T11:33:43;14.00;73.30
18794;DHT22;29610;49.022;12.114;2023-04-25T11:36:32;15.00;70.40
18794;DHT22;29610;49.022;12.114;2023-04-25T11:39:24;16.00;67.60
18794;DHT22;29610;49.022;12.114;2023-04-25T11:42:15;16.20;65.00
18794;DHT22;29610;49.022;12.114;2023-04-25T11:45:05;16.70;63.50
18794;DHT22;29610;49.022;12.114;2023-04-25T11:47:55;16.40;63.30
18794;DHT22;29610;49.022;12.114;2023-04-25T11:50:44;15.50;62.90
18794;DHT22;29610;49.022;12.114;2023-04-25T11:53:34;14.90;64.70
18794;DHT22;29610;49.022;12.114;2023-04-25T11:56:23;15.00;62.70
18794;DHT22;29610;49.022;12.114;2023-04-25T11:59:15;15.20;62.60
18794;DHT22;29610;49.022;12.114;2023-04-25T12:02:06;15.40;61.80
18794;DHT22;29610;49.022;12.114;2023-04-25T12:04:59;15.50;61.50
18794;DHT22;29610;49.022;12.114;2023-04-25T12:08:11;15.10;61.20
18794;DHT22;29610;49.022;12.114;2023-04-25T12:11:00;14.50;64.50
18794;DHT22;29610;49.022;12.114;2023-04-25T12:13:52;13.90;65.10
18794;DHT22;29610;49.022;12.114;2023-04-25T12:16:45;13.40;66.70
18794;DHT22;29610;49.022;12.114;2023-04-25T12:19:35;13.30;65.70
18794;DHT22;29610;49.022;12.114;2023-04-25T12:22:28;13.40;67.80
18794;DHT22;29610;49.022;12.114;2023-04-25T12:25:36;13.50;66.00
18794;DHT22;29610;49.022;12.114;2023-04-25T12:28:26;13.80;66.70
18794;DHT22;29610;49.022;12.114;2023-04-25T12:31:16;13.80;66.40
18794;DHT22;29610;49.022;12.114;2023-04-25T12:34:06;13.30;66.10
18794;DHT22;29610;49.022;12.114;2023-04-25T12:36:55;13.30;65.60
18794;DHT22;29610;49.022;12.114;2023-04-25T12:39:44;13.70;64.30
18794;DHT22;29610;49.022;12.114;2023-04-25T12:42:33;14.20;65.30
18794;DHT22;29610;49.022;12.114;2023-04-25T12:45:24;14.70;64.40
18794;DHT22;29610;49.022;12.114;2023-04-25T12:48:13;14.70;63.10
18794;DHT22;29610;49.022;12.114;2023-04-25T12:51:04;14.60;65.00
18794;DHT22;29610;49.022;12.114;2023-04-25T12:53:53;15.10;62.30
18794;DHT22;29610;49.022;12.114;2023-04-25T12:56:44;15.00;62.00
18794;DHT22;29610;49.022;12.114;2023-04-25T12:59:35;14.80;61.70
18794;DHT22;29610;49.022;12.114;2023-04-25T13:02:24;14.90;63.10
18794;DHT22;29610;49.022;12.114;2023-04-25T13:05:18;14.50;62.90
18794;DHT22;29610;49.022;12.114;2023-04-25T13:08:08;13.90;63.70
18794;DHT22;29610;49.022;12.114;2023-04-25T13:10:57;13.70;65.30
18794;DHT22;29610;49.022;12.114;2023-04-25T13:13:48;13.80;64.70
18794;DHT22;29610;49.022;12.114;2023-04-25T13:16:37;13.50;63.60
18794;DHT22;29610;49.022;12.114;2023-04-25T13:19:26;13.30;64.30
18794;DHT22;29610;49.022;12.114;2023-04-25T13:22:16;13.20;64.90
18794;DHT22;29610;49.022;12.114;2023-04-25T13:25:09;13.00;66.00
18794;DHT22;29610;49.022;12.114;2023-04-25T13:27:58;12.90;67.20
18794;DHT22;29610;49.022;12.114;2023-04-25T13:30:47;12.80;65.70
18794;DHT22;29610;49.022;12.114;2023-04-25T13:33:37;12.80;66.60
18794;DHT22;29610;49.022;12.114;2023-04-25T13:36:26;12.80;66.70
18794;DHT22;29610;49.022;12.114;2023-04-25T13:39:17;12.50;65.70
18794;DHT22;29610;49.022;12.114;2023-04-25T13:42:09;12.30;66.20
18794;DHT22;29610;49.022;12.114;2023-04-25T13:44:58;12.10;67.20
18794;DHT22;29610;49.022;12.114;2023-04-25T13:47:47;12.30;67.90
18794;DHT22;29610;49.022;12.114;2023-04-25T13:50:36;12.60;68.20
18794;DHT22;29610;49.022;12.114;2023-04-25T13:53:26;12.80;68.30
18794;DHT22;29610;49.022;12.114;2023-04-25T13:56:15;12.50;68.50
18794;DHT22;29610;49.022;12.114;2023-04-25T13:59:05;12.30;69.40
18794;DHT22;29610;49.022;12.114;2023-04-25T14:01:54;12.20;69.70
18794;DHT22;29610;49.022;12.114;2023-04-25T14:04:44;12.10;70.10
18794;DHT22;29610;49.022;12.114;2023-04-25T14:07:33;12.10;71.70
18794;DHT22;29610;49.022;12.114;2023-04-25T14:10:25;12.50;69.90
18794;DHT22;29610;49.022;12.114;2023-04-25T14:13:14;12.90;70.10
18794;DHT22;29610;49.022;12.114;2023-04-25T14:16:05;13.20;67.20
18794;DHT22;29610;49.022;12.114;2023-04-25T14:18:54;13.40;66.70
18794;DHT22;29610;49.022;12.114;2023-04-25T14:21:43;13.60;66.40
18794;DHT22;29610;49.022;12.114;2023-04-25T14:24:34;14.00;65.00
18794;DHT22;29610;49.022;12.114;2023-04-25T14:27:23;14.50;63.90
18794;DHT22;29610;49.022;12.114;2023-04-25T14:30:16;14.90;63.00
18794;DHT22;29610;49.022;12.114;2023-04-25T14:33:07;15.20;62.60
18794;DHT22;29610;49.022;12.114;2023-04-25T14:35:56;15.00;60.00
18794;DHT22;29610;49.022;12.114;2023-04-25T14:38:45;15.10;60.20
18794;DHT22;29610;49.022;12.114;2023-04-25T14:41:34;15.50;59.90
18794;DHT22;29610;49.022;12.114;2023-04-25T14:44:23;15.30;59.50
18794;DHT22;29610;49.022;12.114;2023-04-25T14:47:12;14.60;61.50
18794;DHT22;29610;49.022;12.114;2023-04-25T14:50:05;14.20;60.00
18794;DHT22;29610;49.022;12.114;2023-04-25T14:52:58;13.90;61.00
18794;DHT22;29610;49.022;12.114;2023-04-25T14:55:48;13.90;62.10
18794;DHT22;29610;49.022;12.114;2023-04-25T14:58:37;13.90;61.30
18794;DHT22;29610;49.022;12.114;2023-04-25T15:01:27;14.00;61.10
18794;DHT22;29610;49.022;12.114;2023-04-25T15:04:16;13.90;60.40
18794;DHT22;29610;49.022;12.114;2023-04-25T15:07:08;13.40;60.80
18794;DHT22;29610;49.022;12.114;2023-04-25T15:10:00;13.20;63.20
18794;DHT22;29610;49.022;12.114;2023-04-25T15:12:49;13.20;63.20
18794;DHT22;29610;49.022;12.114;2023-04-25T15:15:41;13.20;63.00
18794;DHT22;29610;49.022;12.114;2023-04-25T15:18:32;13.20;63.50
18794;DHT22;29610;49.022;12.114;2023-04-25T15:21:21;13.40;63.70
18794;DHT22;29610;49.022;12.114;2023-04-25T15:24:11;13.30;62.40
18794;DHT22;29610;49.022;12.114;2023-04-25T15:27:03;13.10;60.10
18794;DHT22;29610;49.022;12.114;2023-04-25T15:29:52;13.10;59.40
18794;DHT22;29610;49.022;12.114;2023-04-25T15:32:41;13.10;59.30
18794;DHT22;29610;49.022;12.114;2023-04-25T15:35:30;12.70;60.10
18794;DHT22;29610;49.022;12.114;2023-04-25T15:38:19;12.50;61.50
18794;DHT22;29610;49.022;12.114;2023-04-25T15:41:10;12.40;62.20
18794;DHT22;29610;49.022;12.114;2023-04-25T15:44:01;12.20;61.70
18794;DHT22;29610;49.022;12.114;2023-04-25T15:46:51;12.10;63.20
18794;DHT22;29610;49.022;12.114;2023-04-25T15:49:41;12.20;63.90
18794;DHT22;29610;49.022;12.114;2023-04-25T15:52:31;12.30;64.40
18794;DHT22;29610;49.022;12.114;2023-04-25T15:55:20;12.30;65.20
18794;DHT22;29610;49.022;12.114;2023-04-25T15:58:15;12.10;64.60
18794;DHT22;29610;49.022;12.114;2023-04-25T16:01:04;11.80;65.60
18794;DHT22;29610;49.022;12.114;2023-04-25T16:03:53;11.60;65.50
18794;DHT22;29610;49.022;12.114;2023-04-25T16:06:45;11.30;66.80
18794;DHT22;29610;49.022;12.114;2023-04-25T16:09:34;11.20;67.00
18794;DHT22;29610;49.022;12.114;2023-04-25T16:12:26;11.20;67.40
18794;DHT22;29610;49.022;12.114;2023-04-25T16:15:17;11.00;66.80
18794;DHT22;29610;49.022;12.114;2023-04-25T16:18:06;10.80;67.00
18794;DHT22;29610;49.022;12.114;2023-04-25T16:20:56;10.80;67.50
18794;DHT22;29610;49.022;12.114;2023-04-25T16:23:46;10.80;67.60
18794;DHT22;29610;49.022;12.114;2023-04-25T16:26:35;10.90;68.20
18794;DHT22;29610;49.022;12.114;2023-04-25T16:29:24;11.10;68.10
18794;DHT22;29610;49.022;12.114;2023-04-25T16:32:16;11.30;66.70
18794;DHT22;29610;49.022;12.114;2023-04-25T16:35:06;11.50;67.30
18794;DHT22;29610;49.022;12.114;2023-04-25T16:37:56;11.60;66.80
18794;DHT22;29610;49.022;12.114;2023-04-25T16:40:45;11.60;67.40
18794;DHT22;29610;49.022;12.114;2023-04-25T16:43:34;11.60;66.70
18794;DHT22;29610;49.022;12.114;2023-04-25T16:46:26;11.40;66.10
18794;DHT22;29610;49.022;12.114;2023-04-25T16:49:17;11.10;66.50
18794;DHT22;29610;49.022;12.114;2023-04-25T16:52:06;10.90;66.80
18794;DHT22;29610;49.022;12.114;2023-04-25T16:54:55;10.80;67.60
18794;DHT22;29610;49.022;12.114;2023-04-25T16:57:44;10.70;67.50
18794;DHT22;29610;49.022;12.114;2023-04-25T17:00:33;10.60;68.20
18794;DHT22;29610;49.022;12.114;2023-04-25T17:03:24;10.50;69.10
18794;DHT22;29610;49.022;12.114;2023-04-25T17:06:16;10.50;70.30
18794;DHT22;29610;49.022;12.114;2023-04-25T17:09:05;10.50;70.20
18794;DHT22;29610;49.022;12.114;2023-04-25T17:11:54;10.40;69.30
18794;DHT22;29610;49.022;12.114;2023-04-25T17:14:45;10.30;70.10
18794;DHT22;29610;49.022;12.114;2023-04-25T17:17:34;10.30;71.00
18794;DHT22;29610;49.022;12.114;2023-04-25T17:20:24;10.40;71.10
18794;DHT22;29610;49.022;12.114;2023-04-25T17:23:14;10.30;70.80
18794;DHT22;29610;49.022;12.114;2023-04-25T17:26:04;10.30;71.20
18794;DHT22;29610;49.022;12.114;2023-04-25T17:28:53;10.30;70.80
18794;DHT22;29610;49.022;12.114;2023-04-25T17:31:43;10.40;70.90
18794;DHT22;29610;49.022;12.114;2023-04-25T17:34:32;10.40;70.90
18794;DHT22;29610;49.022;12.114;2023-04-25T17:37:24;10.40;71.00
18794;DHT22;29610;49.022;12.114;2023-04-25T17:40:16;10.40;71.70
18794;DHT22;29610;49.022;12.114;2023-04-25T17:43:06;10.50;71.40
18794;DHT22;29610;49.022;12.114;2023-04-25T17:45:56;10.40;71.50
18794;DHT22;29610;49.022;12.114;2023-04-25T17:48:46;10.30;72.10
18794;DHT22;29610;49.022;12.114;2023-04-25T17:51:37;10.10;72.50
18794;DHT22;29610;49.022;12.114;2023-04-25T17:54:26;9.90;74.20
18794;DHT22;29610;49.022;12.114;2023-04-25T17:57:18;9.60;74.20